Time;durP1;ratioP1;P1;durP2;ratioP2;P2;SDS_P1;SDS_P2;PMS_P1;PMS_P2;Temp;Humidity;BMP_temperature;BMP_pressure;BME280_temperature;BME280_humidity;BME280_pressure;Samples;Min_cycle;Max_cycle;Signal;HPM_P1;HPM_P2
2022/01/13 00:01:37;;;;;;;45.50;28.52;;;0.80;99.90;;;;;;5034154;28;20227;-68
2022/01/13 00:04:07;;;;;;;43.55;27.65;;;0.80;99.90;;;;;;5034231;28;20279;-68
2022/01/13 00:06:34;;;;;;;42.50;26.92;;;0.90;99.90;;;;;;5034611;28;20300;-68
2022/01/13 00:09:01;;;;;;;43.08;25.85;;;1.10;99.90;;;;;;5033957;28;20692;-68
2022/01/13 00:11:28;;;;;;;39.38;27.48;;;1.30;99.90;;;;;;5034094;28;20327;-68
2022/01/13 00:14:11;;;;;;;42.70;26.45;;;1.30;99.90;;;;;;5034227;28;20210;-67
2022/01/13 00:16:41;;;;;;;43.40;27.38;;;1.40;99.90;;;;;;5033858;28;20212;-67
2022/01/13 00:19:30;;;;;;;42.00;27.52;;;1.40;99.90;;;;;;5034202;28;20262;-67
2022/01/13 00:22:01;;;;;;;44.35;27.67;;;1.30;99.90;;;;;;5033763;28;20227;-67
2022/01/13 00:24:28;;;;;;;42.95;27.75;;;1.30;99.90;;;;;;5034147;28;20196;-67
2022/01/13 00:26:55;;;;;;;42.92;27.40;;;1.20;99.90;;;;;;5033896;28;20211;-67
2022/01/13 00:29:28;;;;;;;48.15;29.77;;;1.10;99.90;;;;;;5034070;28;20613;-67
2022/01/13 00:31:54;;;;;;;51.58;31.48;;;1.10;99.90;;;;;;5033683;28;20220;-67
2022/01/13 00:34:23;;;;;;;44.72;28.45;;;1.10;99.90;;;;;;5033953;28;20266;-67
2022/01/13 00:36:49;;;;;;;50.95;32.25;;;1.10;99.90;;;;;;5033850;28;20211;-67
2022/01/13 00:39:16;;;;;;;41.92;27.88;;;1.20;99.90;;;;;;5033862;28;20204;-67
2022/01/13 00:41:43;;;;;;;45.42;27.75;;;1.40;99.90;;;;;;5033332;28;20325;-67
2022/01/13 00:44:10;;;;;;;49.58;29.67;;;1.60;99.90;;;;;;5033658;28;20200;-68
2022/01/13 00:46:43;;;;;;;46.05;29.80;;;1.60;99.90;;;;;;5033808;28;20214;-68
2022/01/13 00:49:11;;;;;;;44.35;28.20;;;1.50;99.90;;;;;;5033878;28;20254;-68
2022/01/13 00:51:39;;;;;;;45.55;29.65;;;1.40;99.90;;;;;;5033309;28;20259;-68
2022/01/13 00:54:08;;;;;;;48.25;28.02;;;1.40;99.90;;;;;;5033775;28;20543;-68
2022/01/13 00:56:36;;;;;;;50.30;29.02;;;1.50;99.90;;;;;;5033691;28;20215;-68
2022/01/13 00:59:07;;;;;;;41.42;27.48;;;1.60;99.90;;;;;;5033708;28;20662;-68
2022/01/13 01:01:34;;;;;;;43.85;27.70;;;1.70;99.90;;;;;;5033198;28;20768;-68
2022/01/13 01:04:01;;;;;;;44.58;27.40;;;1.90;99.90;;;;;;5033798;28;20311;-68
2022/01/13 01:06:28;;;;;;;44.67;27.67;;;2.00;99.90;;;;;;5033286;28;20581;-68
2022/01/13 01:08:56;;;;;;;45.83;28.02;;;2.10;99.90;;;;;;5033406;28;20734;-68
2022/01/13 01:11:25;;;;;;;46.72;29.70;;;2.00;99.90;;;;;;5033558;28;20231;-68
2022/01/13 01:13:52;;;;;;;47.60;30.48;;;2.00;99.90;;;;;;5033413;28;20215;-68
2022/01/13 01:16:19;;;;;;;43.90;28.65;;;1.80;99.90;;;;;;5033416;28;20216;-68
2022/01/13 01:18:54;;;;;;;46.55;28.35;;;1.80;99.90;;;;;;5033382;28;20290;-68
2022/01/13 01:21:50;;;;;;;43.33;27.23;;;1.70;99.90;;;;;;5033367;28;20235;-68
2022/01/13 01:27:05;;;;;;;46.15;29.60;;;1.80;99.90;;;;;;5033574;28;20188;-67
2022/01/13 01:29:37;;;;;;;42.30;27.98;;;1.70;99.90;;;;;;5037606;28;20773;-68
2022/01/13 01:32:09;;;;;;;42.08;26.23;;;1.80;99.90;;;;;;5037417;28;20290;-68
2022/01/13 01:34:51;;;;;;;43.25;27.85;;;2.00;99.90;;;;;;5037383;28;20566;-68
2022/01/13 01:37:19;;;;;;;47.95;28.67;;;2.00;99.90;;;;;;5037450;28;20216;-68
2022/01/13 01:39:49;;;;;;;45.90;28.88;;;1.90;99.90;;;;;;5037008;28;20208;-68
2022/01/13 01:42:18;;;;;;;45.15;27.98;;;1.90;99.90;;;;;;5036684;28;20224;-68
2022/01/13 01:44:47;;;;;;;44.80;28.83;;;1.80;99.90;;;;;;5036878;28;20294;-68
2022/01/13 01:47:16;;;;;;;44.85;28.08;;;1.70;99.90;;;;;;5036820;28;20208;-68
2022/01/13 01:49:46;;;;;;;45.22;27.88;;;1.70;99.90;;;;;;5036856;28;20286;-68
2022/01/13 01:52:15;;;;;;;46.25;28.45;;;1.80;99.90;;;;;;5036932;28;20226;-68
2022/01/13 01:54:43;;;;;;;48.55;28.05;;;1.90;99.90;;;;;;5036554;28;20211;-68
2022/01/13 01:57:11;;;;;;;44.65;28.63;;;1.80;99.90;;;;;;5036837;28;20568;-67
2022/01/13 01:59:40;;;;;;;42.40;27.95;;;1.60;99.90;;;;;;5036636;28;20204;-68
2022/01/13 02:02:10;;;;;;;45.25;28.23;;;1.70;99.90;;;;;;5036469;28;20682;-68
2022/01/13 02:04:37;;;;;;;45.20;29.42;;;1.70;99.90;;;;;;5036338;28;20689;-68
2022/01/13 02:07:07;;;;;;;48.05;28.13;;;1.60;99.90;;;;;;5036333;28;20730;-68
2022/01/13 02:09:36;;;;;;;43.38;28.48;;;1.70;99.90;;;;;;5036573;28;20270;-68
2022/01/13 02:12:07;;;;;;;45.78;29.30;;;1.70;99.90;;;;;;5036356;28;20216;-68
2022/01/13 02:14:48;;;;;;;50.10;31.10;;;1.60;99.90;;;;;;5036548;28;20303;-67
2022/01/13 02:17:23;;;;;;;43.92;27.58;;;1.60;99.90;;;;;;5036448;28;20662;-67
2022/01/13 02:19:52;;;;;;;45.35;29.13;;;1.60;99.90;;;;;;5036233;28;20245;-68
2022/01/13 02:22:21;;;;;;;47.47;28.98;;;1.70;99.90;;;;;;5036299;28;20232;-68
2022/01/13 02:24:48;;;;;;;51.22;29.35;;;1.60;99.90;;;;;;5036393;28;20204;-68
2022/01/13 02:27:15;;;;;;;48.60;30.08;;;1.60;99.90;;;;;;5036100;28;20243;-68
2022/01/13 02:29:42;;;;;;;45.88;29.75;;;1.60;99.90;;;;;;5036542;28;20224;-68
2022/01/13 02:32:09;;;;;;;44.15;27.55;;;1.60;99.90;;;;;;5035919;28;20224;-68
2022/01/13 02:34:36;;;;;;;46.08;30.33;;;1.50;99.90;;;;;;5036203;28;20216;-68
2022/01/13 02:37:04;;;;;;;48.33;30.88;;;1.50;99.90;;;;;;5035927;28;20686;-68
2022/01/13 02:39:33;;;;;;;49.67;29.55;;;1.40;99.90;;;;;;5035722;28;20294;-68
2022/01/13 02:42:01;;;;;;;48.70;31.13;;;1.40;99.90;;;;;;5035378;28;20318;-68
2022/01/13 02:44:29;;;;;;;49.75;31.70;;;1.40;99.90;;;;;;5035708;28;20208;-68
2022/01/13 02:47:09;;;;;;;50.25;29.50;;;1.30;99.90;;;;;;5035968;28;20208;-67
2022/01/13 02:49:36;;;;;;;46.13;30.17;;;1.40;99.90;;;;;;5035979;28;20210;-68
2022/01/13 02:52:04;;;;;;;44.13;28.58;;;1.40;99.90;;;;;;5035532;28;20220;-68
2022/01/13 02:54:32;;;;;;;47.47;29.73;;;1.40;99.90;;;;;;5035933;28;20573;-68
2022/01/13 02:56:59;;;;;;;42.92;29.15;;;1.30;99.90;;;;;;5035598;28;20761;-68
2022/01/13 02:59:26;;;;;;;52.15;31.15;;;1.30;99.90;;;;;;5035519;28;20211;-68
2022/01/13 03:01:53;;;;;;;45.72;30.27;;;1.20;99.90;;;;;;5035385;28;20228;-68
2022/01/13 03:04:21;;;;;;;46.78;28.15;;;1.20;99.90;;;;;;5036084;28;20600;-67
2022/01/13 03:06:49;;;;;;;45.03;29.25;;;1.20;99.90;;;;;;5035652;28;20204;-68
2022/01/13 03:09:16;;;;;;;50.85;30.83;;;1.30;99.90;;;;;;5035374;28;20666;-68
2022/01/13 03:11:46;;;;;;;47.92;29.55;;;1.40;99.90;;;;;;5035227;28;20578;-67
2022/01/13 03:14:13;;;;;;;42.47;30.92;;;1.30;99.90;;;;;;5035185;28;20203;-68
2022/01/13 03:16:42;;;;;;;43.25;28.30;;;1.40;99.90;;;;;;5035411;28;20207;-68
2022/01/13 03:19:09;;;;;;;41.03;27.85;;;1.50;99.90;;;;;;5035382;28;20695;-68
2022/01/13 03:21:36;;;;;;;48.50;29.05;;;1.60;99.90;;;;;;5034939;28;20232;-67
2022/01/13 03:24:08;;;;;;;46.45;29.60;;;1.70;99.90;;;;;;5035416;28;20210;-68
2022/01/13 03:26:35;;;;;;;46.20;29.67;;;1.60;99.90;;;;;;5035211;28;20215;-68
2022/01/13 03:29:15;;;;;;;46.22;29.60;;;1.50;99.90;;;;;;5034955;28;20254;-67
2022/01/13 03:31:44;;;;;;;47.05;28.92;;;1.40;99.90;;;;;;5034797;28;20278;-67
2022/01/13 03:34:11;;;;;;;42.47;29.67;;;1.50;99.90;;;;;;5034599;28;20204;-67
2022/01/13 03:36:38;;;;;;;47.38;30.70;;;1.50;99.90;;;;;;5035008;28;20674;-68
2022/01/13 03:39:07;;;;;;;42.22;29.65;;;1.40;99.90;;;;;;5034603;28;20200;-67
2022/01/13 03:41:35;;;;;;;48.92;29.88;;;1.30;99.90;;;;;;5034237;28;20240;-67
2022/01/13 03:44:06;;;;;;;48.67;29.35;;;1.20;99.90;;;;;;5034854;28;20680;-68
2022/01/13 03:46:35;;;;;;;40.22;27.42;;;1.30;99.90;;;;;;5035330;28;20204;-68
2022/01/13 03:49:02;;;;;;;43.25;29.40;;;1.40;99.90;;;;;;5034538;28;20208;-68
2022/01/13 03:52:20;;;;;;;47.70;28.95;;;1.40;99.90;;;;;;5033688;28;20236;-68
2022/01/13 03:55:35;;;;;;;44.92;28.95;;;1.50;99.90;;;;;;5034572;28;20207;-68
2022/01/13 03:58:52;;;;;;;42.78;28.15;;;1.60;99.90;;;;;;5034394;28;20208;-68
2022/01/13 04:01:51;;;;;;;44.65;28.60;;;1.40;99.90;;;;;;5034035;28;20740;-68
2022/01/13 04:04:19;;;;;;;45.25;28.55;;;1.20;99.90;;;;;;5034113;28;20206;-67
2022/01/13 04:06:47;;;;;;;43.45;28.15;;;1.10;99.90;;;;;;5034361;28;20717;-67
2022/01/13 04:09:30;;;;;;;42.60;28.05;;;1.20;99.90;;;;;;5034511;28;20204;-68
2022/01/13 04:11:58;;;;;;;43.28;28.70;;;1.30;99.90;;;;;;5033875;28;20220;-68
2022/01/13 04:14:30;;;;;;;39.17;27.77;;;1.40;99.90;;;;;;5034067;28;20685;-68
2022/01/13 04:16:57;;;;;;;41.10;28.45;;;1.40;99.90;;;;;;5034317;28;20630;-67
2022/01/13 04:19:25;;;;;;;49.00;28.65;;;1.40;99.90;;;;;;5034238;28;20294;-68
2022/01/13 04:21:52;;;;;;;43.53;28.15;;;1.40;99.90;;;;;;5033899;28;20310;-68
2022/01/13 04:24:19;;;;;;;42.55;28.35;;;1.40;99.90;;;;;;5033841;28;20210;-68
2022/01/13 04:26:46;;;;;;;46.15;28.05;;;1.40;99.90;;;;;;5034076;28;20204;-68
2022/01/13 04:29:27;;;;;;;43.45;28.63;;;1.50;99.90;;;;;;5033962;28;20383;-68
2022/01/13 04:31:55;;;;;;;40.80;27.63;;;1.50;99.90;;;;;;5033673;28;20590;-67
2022/01/13 04:34:22;;;;;;;42.45;26.55;;;1.50;99.90;;;;;;5034178;28;20214;-68
2022/01/13 04:36:51;;;;;;;42.67;28.95;;;1.60;99.90;;;;;;5033825;28;20240;-68
2022/01/13 04:39:18;;;;;;;42.35;29.98;;;1.70;99.90;;;;;;5034081;28;20208;-68
2022/01/13 04:41:47;;;;;;;43.42;28.73;;;1.60;99.90;;;;;;5033624;28;20227;-68
2022/01/13 04:44:16;;;;;;;44.05;29.17;;;1.60;99.90;;;;;;5033999;28;20196;-68
2022/01/13 04:46:44;;;;;;;42.58;28.90;;;1.30;99.90;;;;;;5033928;28;20217;-68
2022/01/13 04:49:11;;;;;;;47.35;29.95;;;1.10;99.90;;;;;;5033751;28;20741;-68
2022/01/13 04:51:41;;;;;;;47.58;29.38;;;1.20;99.90;;;;;;5033579;28;20563;-67
2022/01/13 04:54:09;;;;;;;45.72;29.90;;;1.10;99.90;;;;;;5034006;28;20206;-68
2022/01/13 04:56:41;;;;;;;46.17;28.75;;;1.00;99.90;;;;;;5033780;28;20200;-68
2022/01/13 04:59:09;;;;;;;45.30;28.90;;;1.00;99.90;;;;;;5033832;28;20211;-68
2022/01/13 05:01:37;;;;;;;40.47;27.60;;;1.00;99.90;;;;;;5034479;28;20224;-68
2022/01/13 05:04:04;;;;;;;43.22;29.55;;;1.10;99.90;;;;;;5037799;28;20232;-68
2022/01/13 05:06:31;;;;;;;43.40;29.58;;;1.20;99.90;;;;;;5037756;28;20613;-68
2022/01/13 05:08:58;;;;;;;43.65;28.33;;;1.20;99.90;;;;;;5037712;28;20294;-68
2022/01/13 05:11:26;;;;;;;40.28;27.63;;;1.20;99.90;;;;;;5037367;28;20223;-68
2022/01/13 05:13:53;;;;;;;40.55;27.90;;;1.30;99.90;;;;;;5037900;28;20200;-68
2022/01/13 05:16:23;;;;;;;40.45;27.40;;;1.30;99.90;;;;;;5037680;28;20298;-68
2022/01/13 05:18:55;;;;;;;40.88;27.30;;;1.30;99.90;;;;;;5037726;28;20211;-68
2022/01/13 05:21:24;;;;;;;41.30;27.08;;;1.40;99.90;;;;;;5037201;28;20314;-68
2022/01/13 05:23:52;;;;;;;41.75;27.65;;;1.40;99.90;;;;;;5037492;28;20224;-68
2022/01/13 05:26:21;;;;;;;40.30;27.65;;;1.40;99.90;;;;;;5037536;28;20204;-67
2022/01/13 05:28:49;;;;;;;40.72;27.48;;;1.30;99.90;;;;;;5037533;28;20204;-68
2022/01/13 05:31:16;;;;;;;37.42;26.88;;;1.20;99.90;;;;;;5036959;28;20234;-68
2022/01/13 05:33:43;;;;;;;43.75;28.50;;;1.10;99.90;;;;;;5037370;28;20290;-68
2022/01/13 05:36:10;;;;;;;41.53;28.42;;;1.10;99.90;;;;;;5037266;28;20306;-68
2022/01/13 05:38:37;;;;;;;40.53;28.15;;;1.00;99.90;;;;;;5037155;28;20200;-68
2022/01/13 05:41:04;;;;;;;42.72;28.60;;;0.90;99.90;;;;;;5036647;28;20294;-68
2022/01/13 05:43:30;;;;;;;42.05;27.45;;;1.00;99.90;;;;;;5037055;28;20712;-67
2022/01/13 05:45:59;;;;;;;42.58;27.45;;;1.10;99.90;;;;;;5037228;28;20295;-69
2022/01/13 05:48:25;;;;;;;44.47;26.98;;;1.30;99.90;;;;;;5013280;28;20659;-68
2022/01/13 05:50:52;;;;;;;41.38;26.35;;;1.40;99.90;;;;;;5016084;28;20692;-68
2022/01/13 05:53:19;;;;;;;39.42;27.52;;;1.50;99.90;;;;;;5015743;28;20233;-68
2022/01/13 05:55:46;;;;;;;39.40;26.00;;;1.50;99.90;;;;;;5016019;28;20295;-68
2022/01/13 05:58:13;;;;;;;40.22;28.20;;;1.30;99.90;;;;;;5016231;28;20209;-68
2022/01/13 06:00:40;;;;;;;39.45;26.33;;;1.30;99.90;;;;;;5016024;28;20304;-68
2022/01/13 06:03:08;;;;;;;46.10;28.40;;;1.30;99.90;;;;;;5015950;28;20610;-68
2022/01/13 06:05:35;;;;;;;43.22;27.45;;;1.30;99.90;;;;;;5015982;28;20201;-68
2022/01/13 06:08:02;;;;;;;47.13;28.30;;;1.20;99.90;;;;;;5016048;28;20627;-68
2022/01/13 06:10:29;;;;;;;41.75;27.40;;;1.30;99.90;;;;;;5015568;28;20201;-68
2022/01/13 06:12:56;;;;;;;39.40;27.95;;;1.30;99.90;;;;;;5015194;28;20927;-68
2022/01/13 06:15:25;;;;;;;40.40;27.08;;;1.10;99.90;;;;;;5015831;28;20639;-68
2022/01/13 06:17:53;;;;;;;42.65;29.40;;;1.00;99.90;;;;;;5015998;28;20572;-69
2022/01/13 06:20:22;;;;;;;42.20;26.50;;;0.90;99.90;;;;;;5015925;28;20204;-69
2022/01/13 06:22:50;;;;;;;43.13;27.65;;;0.90;99.90;;;;;;5015909;28;20225;-69
2022/01/13 06:25:18;;;;;;;41.50;27.27;;;1.00;99.90;;;;;;5015607;28;20209;-69
2022/01/13 06:27:45;;;;;;;43.28;27.65;;;1.10;99.90;;;;;;5015989;28;20201;-69
2022/01/13 06:30:15;;;;;;;40.97;26.88;;;1.20;99.90;;;;;;5015269;28;20205;-69
2022/01/13 06:32:42;;;;;;;45.70;27.92;;;1.20;99.90;;;;;;5016162;28;20229;-69
2022/01/13 06:35:09;;;;;;;40.28;26.85;;;1.30;99.90;;;;;;5015973;28;20205;-68
2022/01/13 06:37:38;;;;;;;42.38;27.85;;;1.30;99.90;;;;;;5015369;28;20212;-68
2022/01/13 06:40:06;;;;;;;45.92;28.83;;;1.30;99.90;;;;;;5014996;28;20291;-68
2022/01/13 06:42:33;;;;;;;40.92;26.95;;;1.20;99.90;;;;;;5014806;28;20243;-68
2022/01/13 06:44:59;;;;;;;43.40;28.83;;;1.20;99.90;;;;;;5014843;28;20209;-69
2022/01/13 06:47:26;;;;;;;41.47;28.20;;;1.30;99.90;;;;;;5014934;28;20590;-68
2022/01/13 06:49:53;;;;;;;39.63;27.70;;;1.20;99.90;;;;;;5015625;28;20216;-68
2022/01/13 06:52:20;;;;;;;45.67;29.63;;;1.10;99.90;;;;;;5015903;28;20604;-68
2022/01/13 06:54:48;;;;;;;40.75;27.63;;;1.10;99.90;;;;;;5016066;28;20227;-68
2022/01/13 06:57:16;;;;;;;44.40;28.65;;;1.30;99.90;;;;;;5016140;28;20256;-68
2022/01/13 06:59:42;;;;;;;45.92;28.70;;;1.30;99.90;;;;;;5015938;28;20205;-68
2022/01/13 07:02:09;;;;;;;43.38;28.40;;;1.50;99.90;;;;;;5015887;28;20710;-68
2022/01/13 07:04:36;;;;;;;40.92;27.73;;;1.40;99.90;;;;;;5015848;28;20240;-68
2022/01/13 07:07:04;;;;;;;41.95;28.13;;;1.40;99.90;;;;;;5015808;28;20232;-68
2022/01/13 07:09:30;;;;;;;42.13;27.67;;;1.30;99.90;;;;;;5015716;28;20231;-68
2022/01/13 07:11:59;;;;;;;43.33;27.17;;;1.20;99.90;;;;;;5015196;28;20710;-68
2022/01/13 07:14:25;;;;;;;42.97;28.38;;;1.30;99.90;;;;;;5015359;28;20204;-68
2022/01/13 07:16:52;;;;;;;41.88;27.30;;;1.40;99.90;;;;;;5015533;28;20205;-68
2022/01/13 07:19:19;;;;;;;41.13;27.63;;;1.50;99.90;;;;;;5015403;28;20582;-68
2022/01/13 07:21:47;;;;;;;42.80;26.55;;;1.60;99.90;;;;;;5015033;28;20225;-68
2022/01/13 07:24:14;;;;;;;42.47;29.17;;;1.60;99.90;;;;;;5015100;28;20221;-68
2022/01/13 07:26:41;;;;;;;40.08;27.23;;;1.60;99.90;;;;;;5014621;28;20209;-68
2022/01/13 07:29:10;;;;;;;42.25;26.63;;;1.70;99.90;;;;;;5015345;28;20540;-68
2022/01/13 07:31:37;;;;;;;45.08;29.15;;;1.70;99.90;;;;;;5015085;28;20225;-68
2022/01/13 07:34:04;;;;;;;42.60;28.70;;;1.60;99.90;;;;;;5015325;28;20201;-68
2022/01/13 07:36:30;;;;;;;39.10;28.00;;;1.50;99.90;;;;;;5015189;28;20209;-68
2022/01/13 07:38:57;;;;;;;41.10;27.20;;;1.50;99.90;;;;;;5015258;28;20207;-68
2022/01/13 07:41:24;;;;;;;41.70;28.10;;;1.50;99.90;;;;;;5014691;28;20243;-68
2022/01/13 07:43:54;;;;;;;43.20;29.80;;;1.40;99.90;;;;;;5014681;28;20225;-68
2022/01/13 07:46:24;;;;;;;44.28;29.52;;;1.40;99.90;;;;;;5014989;28;20212;-68
2022/01/13 07:48:51;;;;;;;41.63;26.98;;;1.40;99.90;;;;;;5014922;28;20296;-68
2022/01/13 07:51:18;;;;;;;40.47;27.02;;;1.60;99.90;;;;;;5014757;28;20228;-68
2022/01/13 07:53:45;;;;;;;37.47;26.27;;;1.60;99.90;;;;;;5014996;28;20207;-68
2022/01/13 07:56:13;;;;;;;41.80;27.60;;;1.60;99.90;;;;;;5014908;28;20204;-68
2022/01/13 07:58:40;;;;;;;40.33;26.92;;;1.70;99.90;;;;;;5014852;28;20209;-68
2022/01/13 08:01:08;;;;;;;42.50;27.13;;;1.80;99.90;;;;;;5014527;28;20288;-68
2022/01/13 08:03:36;;;;;;;41.00;29.00;;;1.90;99.90;;;;;;5014969;28;20252;-68
2022/01/13 08:06:04;;;;;;;40.80;25.85;;;1.90;99.90;;;;;;5014848;28;20296;-68
2022/01/13 08:08:31;;;;;;;40.15;26.65;;;2.10;99.90;;;;;;5014668;28;20216;-68
2022/01/13 08:10:58;;;;;;;37.45;25.45;;;2.20;99.90;;;;;;5014503;28;20209;-68
2022/01/13 08:13:25;;;;;;;37.25;26.77;;;2.30;99.90;;;;;;5014874;28;20239;-68
2022/01/13 08:15:54;;;;;;;38.88;27.00;;;2.30;99.90;;;;;;5014864;28;20231;-68
2022/01/13 08:21:07;;;;;;;37.30;25.77;;;2.50;99.90;;;;;;5014538;28;20571;-68
2022/01/13 08:23:34;;;;;;;35.28;24.60;;;2.50;99.90;;;;;;5014397;28;20721;-68
2022/01/13 08:26:01;;;;;;;36.00;24.42;;;2.60;99.90;;;;;;5014836;28;20215;-68
2022/01/13 08:28:28;;;;;;;33.97;23.75;;;2.50;99.90;;;;;;5014985;28;20205;-68
2022/01/13 08:30:56;;;;;;;38.65;26.30;;;2.40;99.90;;;;;;5014509;28;20282;-68
2022/01/13 08:33:23;;;;;;;38.85;25.63;;;2.40;99.90;;;;;;5014619;28;20221;-68
2022/01/13 08:35:50;;;;;;;36.40;26.23;;;2.50;99.90;;;;;;5014376;28;20208;-68
2022/01/13 08:38:19;;;;;;;41.25;25.75;;;2.40;99.90;;;;;;5014299;28;20201;-68
2022/01/13 08:40:47;;;;;;;43.95;27.40;;;2.50;99.90;;;;;;5014087;28;20299;-68
2022/01/13 08:43:14;;;;;;;31.98;22.50;;;2.50;99.90;;;;;;5010171;28;20230;-68
2022/01/13 08:45:42;;;;;;;36.10;24.67;;;2.40;99.90;;;;;;5008440;28;20209;-68
2022/01/13 08:48:09;;;;;;;34.85;22.88;;;2.20;99.90;;;;;;5013460;28;20677;-67
2022/01/13 08:50:36;;;;;;;33.35;22.00;;;2.10;99.90;;;;;;5012804;28;20204;-67
2022/01/13 08:53:03;;;;;;;32.75;21.05;;;2.10;99.90;;;;;;5013011;28;20224;-67
2022/01/13 08:55:31;;;;;;;30.40;21.05;;;2.10;99.90;;;;;;5012863;28;20291;-67
2022/01/13 08:57:58;;;;;;;30.88;20.08;;;2.20;99.90;;;;;;5012769;28;20214;-67
2022/01/13 09:00:25;;;;;;;32.65;21.17;;;2.20;99.90;;;;;;5012752;28;20226;-67
2022/01/13 09:02:52;;;;;;;32.10;21.98;;;2.20;99.90;;;;;;5013003;28;20315;-67
2022/01/13 09:05:21;;;;;;;32.55;21.40;;;2.20;99.90;;;;;;5012469;28;20315;-68
2022/01/13 09:07:48;;;;;;;37.10;23.48;;;2.20;99.90;;;;;;5012203;28;20211;-68
2022/01/13 09:10:17;;;;;;;36.17;23.50;;;2.20;99.90;;;;;;5012664;28;20236;-67
2022/01/13 09:12:45;;;;;;;37.95;24.27;;;2.20;99.90;;;;;;5012950;28;20307;-68
2022/01/13 09:15:29;;;;;;;34.13;22.08;;;2.10;99.90;;;;;;5012535;28;20209;-67
2022/01/13 09:17:56;;;;;;;33.20;21.00;;;2.10;99.90;;;;;;5012696;28;20236;-67
2022/01/13 09:20:23;;;;;;;34.22;21.00;;;2.20;99.90;;;;;;5012169;28;20679;-68
2022/01/13 09:22:50;;;;;;;31.90;20.63;;;2.30;99.90;;;;;;5012927;28;20231;-68
2022/01/13 09:25:16;;;;;;;33.45;21.60;;;2.30;99.90;;;;;;5012308;28;20231;-68
2022/01/13 09:27:45;;;;;;;30.60;20.58;;;2.40;99.90;;;;;;5012097;28;20227;-68
2022/01/13 09:30:15;;;;;;;33.22;22.58;;;2.50;99.90;;;;;;5012055;28;20213;-68
2022/01/13 09:32:42;;;;;;;31.08;22.27;;;2.40;99.90;;;;;;5012692;28;20251;-68
2022/01/13 09:35:10;;;;;;;33.70;21.90;;;2.40;99.90;;;;;;5012345;28;20209;-67
2022/01/13 09:37:37;;;;;;;34.88;21.98;;;2.40;99.90;;;;;;5012228;28;20201;-67
2022/01/13 09:40:07;;;;;;;34.83;24.67;;;2.40;99.90;;;;;;5012120;28;20580;-67
2022/01/13 09:42:35;;;;;;;36.15;23.85;;;2.40;99.90;;;;;;5012495;28;20275;-67
2022/01/13 09:45:06;;;;;;;36.90;25.60;;;2.40;99.90;;;;;;5012133;28;20233;-68
2022/01/13 09:47:33;;;;;;;41.75;25.58;;;2.40;99.90;;;;;;5011950;28;20209;-68
2022/01/13 09:50:01;;;;;;;34.63;22.55;;;2.40;99.90;;;;;;5015310;28;20201;-68
2022/01/13 09:52:28;;;;;;;35.15;24.38;;;2.30;99.90;;;;;;5016500;28;20314;-69
2022/01/13 09:54:56;;;;;;;33.65;23.23;;;2.40;99.90;;;;;;5015948;28;20208;-69
2022/01/13 09:57:23;;;;;;;36.20;23.23;;;2.50;99.90;;;;;;5015725;28;20636;-69
2022/01/13 09:59:50;;;;;;;35.28;23.85;;;2.50;99.90;;;;;;5015492;28;20205;-68
2022/01/13 10:02:18;;;;;;;33.88;23.70;;;2.50;99.90;;;;;;5016112;28;20588;-68
2022/01/13 10:04:47;;;;;;;32.05;22.60;;;2.60;99.90;;;;;;5015643;28;20698;-68
2022/01/13 10:07:17;;;;;;;39.22;24.92;;;2.60;99.90;;;;;;5015346;28;20670;-68
2022/01/13 10:09:54;;;;;;;40.00;26.38;;;2.50;99.90;;;;;;5015440;28;20233;-68
2022/01/13 10:12:26;;;;;;;36.70;25.60;;;2.60;99.90;;;;;;5015836;28;20231;-69
2022/01/13 10:17:50;;;;;;;38.20;26.15;;;2.70;99.90;;;;;;5015321;28;20207;-68
2022/01/13 10:20:20;;;;;;;37.45;25.00;;;2.60;99.90;;;;;;5015245;28;20197;-68
2022/01/13 10:22:48;;;;;;;38.33;26.65;;;2.60;99.90;;;;;;5015604;28;20225;-68
2022/01/13 10:25:34;;;;;;;42.03;26.08;;;2.50;99.90;;;;;;5015226;28;20227;-68
2022/01/13 10:28:18;;;;;;;41.17;25.13;;;2.40;99.90;;;;;;5015275;28;20211;-68
2022/01/13 10:30:47;;;;;;;34.55;23.30;;;2.50;99.90;;;;;;5014993;28;20200;-68
2022/01/13 10:33:17;;;;;;;41.28;25.50;;;2.50;99.90;;;;;;5015357;28;20224;-68
2022/01/13 10:35:45;;;;;;;37.10;24.10;;;2.60;99.90;;;;;;5015131;28;20573;-69
2022/01/13 10:38:16;;;;;;;36.88;23.02;;;2.50;99.90;;;;;;5015224;28;20215;-68
2022/01/13 10:40:46;;;;;;;33.65;21.65;;;2.50;99.90;;;;;;5014939;28;20271;-68
2022/01/13 10:43:14;;;;;;;33.65;21.50;;;2.50;99.90;;;;;;5015188;28;20241;-69
2022/01/13 10:45:47;;;;;;;31.00;20.52;;;2.40;99.90;;;;;;5014350;28;20228;-68
2022/01/13 10:48:19;;;;;;;27.60;20.20;;;2.40;99.90;;;;;;5014747;28;20255;-68
2022/01/13 10:50:48;;;;;;;29.98;20.17;;;2.50;99.90;;;;;;5014837;28;20204;-68
2022/01/13 10:53:17;;;;;;;29.40;20.77;;;2.60;99.90;;;;;;5015219;28;20327;-68
2022/01/13 10:55:47;;;;;;;28.75;21.40;;;2.70;99.90;;;;;;5014526;28;20213;-68
2022/01/13 10:58:16;;;;;;;30.60;21.75;;;2.70;99.90;;;;;;5014458;28;20209;-68
2022/01/13 11:00:44;;;;;;;28.90;19.90;;;2.70;99.90;;;;;;5014299;28;20215;-68
2022/01/13 11:03:14;;;;;;;31.83;21.33;;;2.80;99.90;;;;;;5014829;28;20333;-68
2022/01/13 11:05:45;;;;;;;30.60;19.88;;;2.90;99.90;;;;;;5014336;28;20220;-68
2022/01/13 11:08:12;;;;;;;29.80;20.25;;;2.90;99.90;;;;;;5014371;28;20589;-68
2022/01/13 11:10:48;;;;;;;28.85;20.05;;;2.90;99.90;;;;;;5014137;28;20204;-68
2022/01/13 11:13:18;;;;;;;29.55;20.77;;;3.00;99.90;;;;;;5014947;28;20228;-68
2022/01/13 11:15:50;;;;;;;29.85;20.90;;;3.00;99.90;;;;;;5014069;28;20563;-68
2022/01/13 11:18:19;;;;;;;32.85;20.73;;;2.90;99.90;;;;;;5014362;28;20215;-68
2022/01/13 11:20:48;;;;;;;30.45;20.27;;;2.80;99.90;;;;;;5013957;28;20206;-68
2022/01/13 11:23:17;;;;;;;30.42;20.63;;;2.70;99.90;;;;;;5014309;28;20235;-68
2022/01/13 11:25:45;;;;;;;27.65;19.05;;;2.70;99.90;;;;;;5013784;28;20228;-68
2022/01/13 11:28:12;;;;;;;26.63;18.50;;;2.90;99.90;;;;;;5014188;28;20208;-68
2022/01/13 11:30:40;;;;;;;29.27;19.88;;;3.00;99.90;;;;;;5013965;28;20208;-68
2022/01/13 11:33:07;;;;;;;27.15;18.95;;;3.10;99.90;;;;;;5014344;28;20229;-68
2022/01/13 11:35:37;;;;;;;28.50;19.63;;;3.10;99.90;;;;;;5013609;28;20205;-68
2022/01/13 11:38:07;;;;;;;27.45;19.70;;;3.10;99.90;;;;;;5013921;28;20262;-68
2022/01/13 11:40:38;;;;;;;28.83;19.48;;;3.10;99.90;;;;;;5013693;28;20666;-68
2022/01/13 11:43:06;;;;;;;27.67;19.42;;;3.20;99.90;;;;;;5014074;28;20331;-68
2022/01/13 11:45:41;;;;;;;24.20;17.63;;;3.20;99.90;;;;;;5013619;28;20275;-68
2022/01/13 11:48:17;;;;;;;24.75;15.27;;;3.30;99.90;;;;;;5013213;28;20204;-68
2022/01/13 11:50:48;;;;;;;22.20;16.63;;;3.40;99.90;;;;;;5013421;28;20208;-68
2022/01/13 11:53:29;;;;;;;22.73;16.10;;;3.40;99.90;;;;;;5014203;28;20636;-68
2022/01/13 11:56:01;;;;;;;25.05;16.92;;;3.50;99.90;;;;;;5013565;28;20307;-68
2022/01/13 11:58:31;;;;;;;25.40;16.75;;;3.60;99.90;;;;;;5013425;28;20219;-68
2022/01/13 12:01:11;;;;;;;21.15;14.90;;;3.60;99.90;;;;;;5013801;28;20213;-68
2022/01/13 12:03:41;;;;;;;21.52;16.27;;;3.60;99.90;;;;;;5013945;28;20209;-68
2022/01/13 12:06:08;;;;;;;20.08;14.32;;;3.40;99.90;;;;;;5013326;28;20224;-68
2022/01/13 12:08:38;;;;;;;22.20;15.93;;;3.40;99.90;;;;;;5013354;28;20251;-68
2022/01/13 12:11:06;;;;;;;22.58;15.55;;;3.50;99.90;;;;;;5012649;28;20212;-68
2022/01/13 12:13:39;;;;;;;21.35;16.17;;;3.40;99.90;;;;;;5013913;28;20213;-68
2022/01/13 12:16:08;;;;;;;23.38;15.93;;;3.50;99.90;;;;;;5013064;28;20292;-68
2022/01/13 12:19:02;;;;;;;21.40;15.32;;;3.60;99.90;;;;;;5013128;28;20570;-68
2022/01/13 12:21:34;;;;;;;23.25;16.55;;;3.60;99.90;;;;;;5013083;28;20228;-68
2022/01/13 12:24:03;;;;;;;24.25;16.48;;;3.60;99.90;;;;;;5013528;28;20617;-68
2022/01/13 12:26:47;;;;;;;25.30;17.63;;;3.70;99.90;;;;;;5012890;28;20227;-69
2022/01/13 12:29:17;;;;;;;24.40;16.75;;;3.80;99.90;;;;;;5012966;28;20209;-68
2022/01/13 12:31:56;;;;;;;27.45;17.13;;;4.00;99.90;;;;;;5013051;28;20694;-68
2022/01/13 12:34:39;;;;;;;25.70;17.13;;;4.10;99.90;;;;;;5013321;28;20204;-68
2022/01/13 12:37:27;;;;;;;25.00;18.15;;;4.10;99.90;;;;;;5012581;28;20240;-69
2022/01/13 12:39:58;;;;;;;31.70;18.92;;;4.30;99.90;;;;;;5012671;28;20211;-68
2022/01/13 12:42:28;;;;;;;25.85;18.83;;;4.30;99.90;;;;;;5013121;28;20228;-68
2022/01/13 12:47:42;;;;;;;28.55;19.20;;;5.00;99.90;;;;;;5012961;28;20204;-69
2022/01/13 12:50:24;;;;;;;25.20;17.67;;;5.10;99.90;;;;;;5013200;28;20570;-68
2022/01/13 12:52:51;;;;;;;26.35;18.10;;;5.20;99.90;;;;;;5013077;28;20231;-69
2022/01/13 12:55:20;;;;;;;24.73;18.27;;;5.30;99.90;;;;;;5012927;28;20292;-69
2022/01/13 12:57:54;;;;;;;25.35;18.30;;;5.40;99.90;;;;;;5013094;28;20201;-69
2022/01/13 13:00:22;;;;;;;25.13;16.90;;;5.20;99.90;;;;;;5012431;28;20205;-68